Time;durP1;ratioP1;P1;durP2;ratioP2;P2;SDS_P1;SDS_P2;PMS_P1;PMS_P2;Temp;Humidity;BMP_temperature;BMP_pressure;BME280_temperature;BME280_humidity;BME280_pressure;Samples;Min_cycle;Max_cycle;Signal;HPM_P1;HPM_P2
2022/03/02 00:00:47;;;;;;;;;;;;;;;-1.04;80.51;100348.28;5050757;28;1487;-58
2022/03/02 00:03:13;;;;;;;;;;;;;;;-1.04;80.42;100347.50;5052091;28;827;-58
2022/03/02 00:05:39;;;;;;;;;;;;;;;-1.08;80.79;100341.88;5052135;28;1889;-58
2022/03/02 00:08:06;;;;;;;;;;;;;;;-1.13;80.99;100338.50;5051958;28;878;-58
2022/03/02 00:10:33;;;;;;;;;;;;;;;-1.16;81.12;100337.22;5051783;28;819;-59
2022/03/02 00:12:59;;;;;;;;;;;;;;;-1.13;80.87;100336.59;5051940;28;855;-59
2022/03/02 00:15:26;;;;;;;;;;;;;;;-1.08;81.00;100339.19;5051863;28;886;-59
2022/03/02 00:17:52;;;;;;;;;;;;;;;-1.03;80.57;100336.31;5052057;28;910;-59
2022/03/02 00:20:19;;;;;;;;;;;;;;;-0.97;80.69;100331.56;5052064;28;867;-59
2022/03/02 00:22:45;;;;;;;;;;;;;;;-0.95;80.96;100334.78;5051772;28;843;-59
2022/03/02 00:25:12;;;;;;;;;;;;;;;-0.92;80.92;100333.34;5051604;28;1866;-59
2022/03/02 00:27:38;;;;;;;;;;;;;;;-0.91;80.70;100322.19;5051634;28;827;-58
2022/03/02 00:30:06;;;;;;;;;;;;;;;-0.89;80.58;100332.72;5051669;28;807;-59
2022/03/02 00:32:33;;;;;;;;;;;;;;;-0.90;80.54;100320.25;5051596;28;842;-59
2022/03/02 00:34:59;;;;;;;;;;;;;;;-0.89;80.82;100313.72;5051660;28;1054;-59
2022/03/02 00:37:26;;;;;;;;;;;;;;;-0.89;81.09;100319.97;5051593;28;874;-59
2022/03/02 00:39:52;;;;;;;;;;;;;;;-0.88;80.72;100320.75;5050143;28;1629;-59
2022/03/02 00:42:19;;;;;;;;;;;;;;;-0.87;80.59;100315.00;5051271;28;1451;-59
2022/03/02 00:44:45;;;;;;;;;;;;;;;-0.86;80.35;100310.38;5051313;28;1917;-59
2022/03/02 00:47:12;;;;;;;;;;;;;;;-0.84;80.37;100310.88;5050241;28;1326;-59
2022/03/02 00:49:39;;;;;;;;;;;;;;;-0.84;80.38;100308.16;5051429;28;843;-59
2022/03/02 00:52:06;;;;;;;;;;;;;;;-0.88;79.93;100305.25;5051455;28;800;-59
2022/03/02 00:54:33;;;;;;;;;;;;;;;-0.87;79.57;100295.22;5051408;28;860;-59
2022/03/02 00:56:59;;;;;;;;;;;;;;;-0.87;79.74;100308.78;5051403;28;999;-59
2022/03/02 00:59:26;;;;;;;;;;;;;;;-0.87;79.86;100303.38;5051337;28;1057;-59
2022/03/02 01:01:52;;;;;;;;;;;;;;;-0.87;79.75;100300.66;5051361;28;799;-59
2022/03/02 01:04:19;;;;;;;;;;;;;;;-0.85;79.56;100301.16;5051270;28;870;-59
2022/03/02 01:06:46;;;;;;;;;;;;;;;-0.86;80.42;100299.53;5051282;28;1905;-59
2022/03/02 01:09:13;;;;;;;;;;;;;;;-0.85;79.58;100295.72;5049805;28;933;-59
2022/03/02 01:11:40;;;;;;;;;;;;;;;-0.84;79.51;100300.00;5051150;28;887;-59
2022/03/02 01:14:07;;;;;;;;;;;;;;;-0.84;79.53;100302.72;5051469;28;823;-59
2022/03/02 01:16:33;;;;;;;;;;;;;;;-0.86;79.61;100296.81;5053477;28;964;-59
2022/03/02 01:19:00;;;;;;;;;;;;;;;-0.88;79.97;100288.19;5055216;28;811;-59
2022/03/02 01:21:27;;;;;;;;;;;;;;;-0.87;79.70;100292.50;5055134;28;858;-59
2022/03/02 01:23:56;;;;;;;;;;;;;;;-0.89;79.58;100292.81;5054977;28;926;-59
2022/03/02 01:26:24;;;;;;;;;;;;;;;-0.90;80.06;100282.25;5054998;28;1927;-59
2022/03/02 01:28:54;;;;;;;;;;;;;;;-0.92;80.01;100274.44;5054921;28;890;-59
2022/03/02 01:31:21;;;;;;;;;;;;;;;-0.95;79.94;100271.56;5054993;28;905;-59
2022/03/02 01:33:49;;;;;;;;;;;;;;;-0.98;80.40;100266.75;5053704;28;757;-59
2022/03/02 01:36:15;;;;;;;;;;;;;;;-1.01;80.40;100270.09;5053484;28;1335;-59
2022/03/02 01:38:41;;;;;;;;;;;;;;;-1.03;80.73;100262.25;5054706;28;842;-59
2022/03/02 01:41:09;;;;;;;;;;;;;;;-1.04;80.79;100261.47;5054437;28;1444;-59
2022/03/02 01:43:35;;;;;;;;;;;;;;;-1.06;80.71;100255.56;5054661;28;882;-59
2022/03/02 01:46:02;;;;;;;;;;;;;;;-1.06;80.99;100252.84;5054587;28;1914;-59
2022/03/02 01:48:28;;;;;;;;;;;;;;;-1.07;81.11;100248.53;5054758;28;879;-59
2022/03/02 01:50:54;;;;;;;;;;;;;;;-1.06;81.21;100254.75;5054554;28;893;-59
2022/03/02 01:53:21;;;;;;;;;;;;;;;-1.05;81.16;100259.84;5054425;28;610;-59
2022/03/02 01:55:47;;;;;;;;;;;;;;;-1.05;80.98;100248.22;5054412;28;999;-59
2022/03/02 01:58:13;;;;;;;;;;;;;;;-1.04;81.39;100253.31;5054413;28;811;-58
2022/03/02 02:00:40;;;;;;;;;;;;;;;-1.04;81.42;100250.63;5054372;28;807;-59
2022/03/02 02:03:06;;;;;;;;;;;;;;;-1.05;81.30;100246.28;5054373;28;823;-59
2022/03/02 02:05:33;;;;;;;;;;;;;;;-1.04;81.31;100238.97;5054123;28;1910;-59
2022/03/02 02:07:59;;;;;;;;;;;;;;;-1.05;81.08;100245.50;5054481;28;811;-59
2022/03/02 02:10:25;;;;;;;;;;;;;;;-1.05;81.24;100231.94;5054433;28;820;-59
2022/03/02 02:12:52;;;;;;;;;;;;;;;-1.06;81.16;100228.44;5054347;28;894;-59
2022/03/02 02:15:19;;;;;;;;;;;;;;;-1.07;80.90;100220.59;5054435;28;799;-59
2022/03/02 02:17:45;;;;;;;;;;;;;;;-1.07;80.89;100221.41;5054745;28;930;-59
2022/03/02 02:20:12;;;;;;;;;;;;;;;-1.07;81.09;100224.13;5054730;28;752;-59
2022/03/02 02:22:43;;;;;;;;;;;;;;;-1.06;81.20;100225.72;5054012;28;894;-59
2022/03/02 02:25:10;;;;;;;;;;;;;;;-1.07;80.90;100220.59;5052569;28;1952;-59
2022/03/02 02:27:37;;;;;;;;;;;;;;;-1.09;81.03;100217.38;5052723;28;870;-59
2022/03/02 02:30:04;;;;;;;;;;;;;;;-1.12;81.09;100216.09;5053792;28;945;-59
2022/03/02 02:32:31;;;;;;;;;;;;;;;-1.12;81.13;100218.81;5053781;28;889;-59
2022/03/02 02:34:57;;;;;;;;;;;;;;;-1.10;81.28;100215.81;5053742;28;858;-59
2022/03/02 02:37:25;;;;;;;;;;;;;;;-1.09;81.39;100217.38;5053738;28;811;-59
2022/03/02 02:39:55;;;;;;;;;;;;;;;-1.11;81.26;100215.00;5052343;28;1522;-59
2022/03/02 02:42:21;;;;;;;;;;;;;;;-1.12;81.26;100202.53;5053425;28;1243;-59
2022/03/02 02:44:48;;;;;;;;;;;;;;;-1.18;81.29;100201.09;5053457;28;1976;-59
2022/03/02 02:47:14;;;;;;;;;;;;;;;-1.23;81.23;100206.66;5053528;28;815;-59
2022/03/02 02:49:40;;;;;;;;;;;;;;;-1.24;81.69;100205.03;5053451;28;1002;-59
2022/03/02 02:52:07;;;;;;;;;;;;;;;-1.30;81.77;100201.69;5053461;28;843;-59
2022/03/02 02:54:33;;;;;;;;;;;;;;;-1.36;82.00;100205.66;5053413;28;1045;-59
2022/03/02 02:57:00;;;;;;;;;;;;;;;-1.44;82.13;100206.41;5053561;28;799;-59
2022/03/02 02:59:26;;;;;;;;;;;;;;;-1.48;82.61;100206.22;5053349;28;827;-59
2022/03/02 03:01:53;;;;;;;;;;;;;;;-1.50;82.44;100203.03;5053276;28;859;-59
2022/03/02 03:04:19;;;;;;;;;;;;;;;-1.55;82.23;100202.38;5053548;28;847;-59
2022/03/02 03:06:45;;;;;;;;;;;;;;;-1.61;82.95;100199.00;5053246;28;1886;-59
2022/03/02 03:09:12;;;;;;;;;;;;;;;-1.66;83.15;100199.13;5053869;28;843;-59
2022/03/02 03:11:39;;;;;;;;;;;;;;;-1.62;83.29;100191.97;5053102;28;866;-59
2022/03/02 03:14:13;;;;;;;;;;;;;;;-1.62;83.40;100181.13;5053566;28;868;-59
2022/03/02 03:16:40;;;;;;;;;;;;;;;-1.70;83.21;100181.88;5053014;28;912;-59
2022/03/02 03:19:07;;;;;;;;;;;;;;;-1.75;83.43;100184.72;5052903;28;894;-59
2022/03/02 03:21:33;;;;;;;;;;;;;;;-1.73;83.62;100180.59;5052750;28;917;-59
2022/03/02 03:23:59;;;;;;;;;;;;;;;-1.73;83.63;100169.75;5052719;28;898;-59
2022/03/02 03:26:26;;;;;;;;;;;;;;;-1.70;83.82;100169.13;5052746;28;1881;-59
2022/03/02 03:28:52;;;;;;;;;;;;;;;-1.69;84.40;100173.44;5052692;28;823;-59
2022/03/02 03:31:19;;;;;;;;;;;;;;;-1.73;84.40;100166.22;5052668;28;835;-59
2022/03/02 03:33:45;;;;;;;;;;;;;;;-1.74;84.40;100165.44;5052570;28;835;-59
2022/03/02 03:36:12;;;;;;;;;;;;;;;-1.68;84.79;100175.03;5052509;28;879;-59
2022/03/02 03:38:38;;;;;;;;;;;;;;;-1.68;84.15;100163.41;5052274;28;787;-59
2022/03/02 03:41:05;;;;;;;;;;;;;;;-1.70;84.71;100168.34;5052737;28;1275;-59
2022/03/02 03:43:33;;;;;;;;;;;;;;;-1.67;84.34;100170.41;5052698;28;886;-59
2022/03/02 03:45:59;;;;;;;;;;;;;;;-1.68;84.75;100166.91;5052352;28;1973;-59
2022/03/02 03:48:27;;;;;;;;;;;;;;;-1.71;85.21;100169.44;5052347;28;941;-59
2022/03/02 03:50:53;;;;;;;;;;;;;;;-1.65;84.68;100165.47;5052281;28;866;-59
2022/03/02 03:53:21;;;;;;;;;;;;;;;-1.61;84.62;100171.09;5052456;28;886;-59
2022/03/02 03:55:47;;;;;;;;;;;;;;;-1.59;85.04;100166.94;5052255;28;835;-59
2022/03/02 03:58:13;;;;;;;;;;;;;;;-1.59;84.95;100169.66;5052352;28;808;-59
2022/03/02 04:00:40;;;;;;;;;;;;;;;-1.57;85.36;100174.78;5052356;28;945;-59
2022/03/02 04:03:06;;;;;;;;;;;;;;;-1.59;85.37;100172.38;5052285;28;824;-59
2022/03/02 04:05:32;;;;;;;;;;;;;;;-1.63;85.40;100165.19;5050710;28;1881;-59
2022/03/02 04:07:58;;;;;;;;;;;;;;;-1.72;85.56;100162.44;5051992;28;845;-59
2022/03/02 04:10:25;;;;;;;;;;;;;;;-1.78;85.62;100169.09;5051903;28;820;-59
2022/03/02 04:12:52;;;;;;;;;;;;;;;-1.83;85.65;100161.91;5052012;28;795;-59
2022/03/02 04:15:18;;;;;;;;;;;;;;;-1.90;86.40;100167.75;5052111;28;811;-59
2022/03/02 04:17:46;;;;;;;;;;;;;;;-1.94;86.32;100165.94;5052102;28;933;-59
2022/03/02 04:20:12;;;;;;;;;;;;;;;-1.96;86.67;100168.16;5052066;28;939;-59
2022/03/02 04:22:39;;;;;;;;;;;;;;;-2.01;87.18;100163.69;5051798;28;791;-59
2022/03/02 04:25:05;;;;;;;;;;;;;;;-2.03;87.13;100156.97;5051658;28;1949;-59
2022/03/02 04:27:32;;;;;;;;;;;;;;;-2.07;87.75;100154.09;5051820;28;803;-59
2022/03/02 04:29:58;;;;;;;;;;;;;;;-2.12;88.17;100152.31;5051674;28;846;-59
2022/03/02 04:32:25;;;;;;;;;;;;;;;-2.15;87.68;100150.22;5051564;28;892;-59
2022/03/02 04:34:52;;;;;;;;;;;;;;;-2.19;88.30;100148.44;5051566;28;827;-59
2022/03/02 04:37:18;;;;;;;;;;;;;;;-2.22;88.17;100146.34;5051549;28;887;-59
2022/03/02 04:39:45;;;;;;;;;;;;;;;-2.19;88.86;100148.44;5051552;28;890;-59
2022/03/02 04:42:12;;;;;;;;;;;;;;;-2.19;88.52;100146.53;5051251;28;1409;-59
2022/03/02 04:44:37;;;;;;;;;;;;;;;-2.19;88.41;100145.75;5051432;28;1913;-59
2022/03/02 04:47:04;;;;;;;;;;;;;;;-2.18;89.16;100152.75;5051451;28;862;-58
2022/03/02 04:49:31;;;;;;;;;;;;;;;-2.17;89.49;100146.22;5051356;28;935;-59
2022/03/02 04:51:57;;;;;;;;;;;;;;;-2.14;89.50;100153.72;5050828;28;858;-59
2022/03/02 04:57:10;;;;;;;;;;;;;;;-2.03;89.39;100151.56;5051397;28;661;-58
2022/03/02 04:59:37;;;;;;;;;;;;;;;-1.93;89.15;100152.09;5051392;28;898;-58
2022/03/02 05:02:03;;;;;;;;;;;;;;;-1.81;89.26;100148.00;5051320;28;870;-58
2022/03/02 05:04:30;;;;;;;;;;;;;;;-1.72;88.99;100146.97;5051112;28;867;-58
2022/03/02 05:06:57;;;;;;;;;;;;;;;-1.59;88.75;100147.97;5051441;28;1935;-58
2022/03/02 05:09:23;;;;;;;;;;;;;;;-1.47;89.09;100144.69;5051205;28;883;-58
2022/03/02 05:11:50;;;;;;;;;;;;;;;-1.36;88.54;100148.72;5051164;28;888;-58
2022/03/02 05:14:16;;;;;;;;;;;;;;;-1.26;88.35;100151.13;5051251;28;891;-58
2022/03/02 05:16:42;;;;;;;;;;;;;;;-1.20;88.19;100146.34;5051140;28;1019;-58
2022/03/02 05:19:09;;;;;;;;;;;;;;;-1.13;87.73;100145.88;5051143;28;823;-58
2022/03/02 05:21:36;;;;;;;;;;;;;;;-1.12;87.51;100145.56;5051139;28;823;-58
2022/03/02 05:24:02;;;;;;;;;;;;;;;-1.10;87.08;100148.78;5051115;28;977;-58
2022/03/02 05:26:28;;;;;;;;;;;;;;;-1.07;86.90;100148.16;5051006;28;1947;-58
2022/03/02 05:28:54;;;;;;;;;;;;;;;-1.06;86.41;100152.47;5050978;28;827;-59
2022/03/02 05:31:23;;;;;;;;;;;;;;;-1.06;86.48;100157.88;5051052;28;846;-60
2022/03/02 05:33:51;;;;;;;;;;;;;;;-1.05;85.93;100153.25;5049673;28;816;-60
2022/03/02 05:36:18;;;;;;;;;;;;;;;-0.99;85.61;100156.63;5051007;28;926;-60
2022/03/02 05:38:45;;;;;;;;;;;;;;;-0.96;85.25;100159.50;5050893;28;898;-60
2022/03/02 05:41:12;;;;;;;;;;;;;;;-0.93;85.01;100152.66;5050725;28;1198;-60
2022/03/02 05:43:38;;;;;;;;;;;;;;;-0.91;84.88;100155.84;5050937;28;811;-58
2022/03/02 05:46:05;;;;;;;;;;;;;;;-0.88;84.72;100157.91;5050857;28;1973;-58
2022/03/02 05:48:31;;;;;;;;;;;;;;;-0.78;84.65;100152.19;5050817;28;853;-59
2022/03/02 05:50:58;;;;;;;;;;;;;;;-0.71;84.22;100160.66;5050886;28;839;-58
2022/03/02 05:53:24;;;;;;;;;;;;;;;-0.78;83.98;100152.19;5050795;28;882;-58
2022/03/02 05:55:50;;;;;;;;;;;;;;;-0.76;83.57;100160.03;5050746;28;910;-58
2022/03/02 05:58:17;;;;;;;;;;;;;;;-0.72;83.94;100150.91;5050925;28;1042;-59
2022/03/02 06:00:43;;;;;;;;;;;;;;;-0.67;83.33;100156.19;5050961;28;796;-59
2022/03/02 06:03:10;;;;;;;;;;;;;;;-0.64;83.16;100162.88;5052641;28;1187;-58
2022/03/02 06:05:36;;;;;;;;;;;;;;;-0.62;83.29;100161.47;5054976;28;1939;-58
2022/03/02 06:08:02;;;;;;;;;;;;;;;-0.61;83.05;100162.25;5054963;28;823;-58
2022/03/02 06:10:29;;;;;;;;;;;;;;;-0.60;83.01;100172.00;5054220;28;862;-58
2022/03/02 06:12:56;;;;;;;;;;;;;;;-0.54;82.73;100167.22;5054327;28;874;-58
2022/03/02 06:15:22;;;;;;;;;;;;;;;-0.50;82.56;100162.75;5054374;28;952;-58
2022/03/02 06:17:49;;;;;;;;;;;;;;;-0.45;82.67;100166.13;5054551;28;928;-58
2022/03/02 06:20:16;;;;;;;;;;;;;;;-0.56;82.47;100164.03;5053997;28;926;-58
2022/03/02 06:22:43;;;;;;;;;;;;;;;-0.62;82.25;100164.19;5053960;28;918;-58
2022/03/02 06:25:09;;;;;;;;;;;;;;;-0.62;82.73;100172.34;5053861;28;1881;-58
2022/03/02 06:27:38;;;;;;;;;;;;;;;-0.58;82.89;100167.03;5054112;28;791;-58
2022/03/02 06:30:05;;;;;;;;;;;;;;;-0.59;82.82;100164.66;5054097;28;910;-57
2022/03/02 06:32:33;;;;;;;;;;;;;;;-0.60;82.53;100180.13;5053672;28;1016;-58
2022/03/02 06:34:59;;;;;;;;;;;;;;;-0.61;82.54;100164.97;5053802;28;886;-58
2022/03/02 06:37:26;;;;;;;;;;;;;;;-0.74;82.94;100174.06;5053706;28;885;-59
2022/03/02 06:39:53;;;;;;;;;;;;;;;-0.85;83.19;100182.50;5053650;28;979;-59
2022/03/02 06:42:20;;;;;;;;;;;;;;;-0.95;83.84;100179.31;5053350;28;1265;-58
2022/03/02 06:44:52;;;;;;;;;;;;;;;-1.03;84.12;100183.59;5053512;28;1906;-58
2022/03/02 06:47:19;;;;;;;;;;;;;;;-1.10;85.10;100186.75;5053515;28;831;-58
2022/03/02 06:49:48;;;;;;;;;;;;;;;-1.11;85.12;100184.34;5053567;28;934;-58
2022/03/02 06:52:18;;;;;;;;;;;;;;;-1.14;85.59;100188.50;5053493;28;823;-58
2022/03/02 06:54:46;;;;;;;;;;;;;;;-1.17;85.89;100189.13;5053418;28;839;-59
2022/03/02 06:57:15;;;;;;;;;;;;;;;-1.22;85.82;100186.53;5053350;28;827;-58
2022/03/02 06:59:43;;;;;;;;;;;;;;;-1.27;86.48;100189.41;5053387;28;803;-58
2022/03/02 07:02:12;;;;;;;;;;;;;;;-1.28;86.68;100183.19;5053151;28;925;-58
2022/03/02 07:04:42;;;;;;;;;;;;;;;-1.28;86.71;100183.19;5053163;28;928;-58
2022/03/02 07:07:10;;;;;;;;;;;;;;;-1.22;87.11;100183.84;5053187;28;803;-58
2022/03/02 07:09:37;;;;;;;;;;;;;;;-1.16;87.14;100187.22;5053059;28;898;-58
2022/03/02 07:12:05;;;;;;;;;;;;;;;-1.12;87.60;100186.28;5053011;28;855;-58
2022/03/02 07:14:33;;;;;;;;;;;;;;;-1.12;87.66;100185.47;5052485;28;862;-58
2022/03/02 07:17:01;;;;;;;;;;;;;;;-1.15;87.15;100184.19;5052861;28;891;-58
2022/03/02 07:19:27;;;;;;;;;;;;;;;-1.15;86.88;100181.50;5053448;28;772;-58
2022/03/02 07:21:56;;;;;;;;;;;;;;;-1.12;86.92;100180.06;5053457;28;858;-58
2022/03/02 07:24:23;;;;;;;;;;;;;;;-1.01;87.12;100183.28;5051772;28;1733;-58
2022/03/02 07:26:51;;;;;;;;;;;;;;;-0.93;86.99;100183.28;5052893;28;1955;-58
2022/03/02 07:29:21;;;;;;;;;;;;;;;-0.92;87.29;100184.09;5052630;28;1155;-58
2022/03/02 07:31:48;;;;;;;;;;;;;;;-0.89;86.91;100167.97;5052512;28;1717;-58
2022/03/02 07:34:15;;;;;;;;;;;;;;;-0.88;87.31;100163.34;5052576;28;1149;-58
2022/03/02 07:36:42;;;;;;;;;;;;;;;-0.86;87.59;100167.34;5052677;28;854;-58
2022/03/02 07:39:09;;;;;;;;;;;;;;;-0.77;87.91;100169.25;5052822;28;819;-58
2022/03/02 07:41:35;;;;;;;;;;;;;;;-0.73;87.78;100162.88;5052365;28;1213;-58
2022/03/02 07:44:02;;;;;;;;;;;;;;;-0.76;87.69;100165.44;5052505;28;933;-58
2022/03/02 07:46:29;;;;;;;;;;;;;;;-0.82;88.16;100162.88;5052313;28;1968;-58
2022/03/02 07:48:55;;;;;;;;;;;;;;;-0.77;88.48;100163.84;5052358;28;906;-58
2022/03/02 07:51:23;;;;;;;;;;;;;;;-0.71;88.55;100160.66;5052328;28;859;-58
2022/03/02 07:53:51;;;;;;;;;;;;;;;-0.64;88.54;100158.28;5052257;28;865;-58
2022/03/02 07:56:18;;;;;;;;;;;;;;;-0.56;88.25;100150.44;5050947;28;1657;-58
2022/03/02 07:58:45;;;;;;;;;;;;;;;-0.47;87.54;100152.06;5052210;28;847;-58
2022/03/02 08:01:17;;;;;;;;;;;;;;;-0.54;87.25;100157.16;5051975;28;862;-58
2022/03/02 08:03:44;;;;;;;;;;;;;;;-0.54;87.28;100159.06;5052154;28;854;-58
2022/03/02 08:06:14;;;;;;;;;;;;;;;-0.49;87.32;100156.19;5052327;28;1882;-58
2022/03/02 08:08:40;;;;;;;;;;;;;;;-0.54;87.32;100157.16;5051974;28;894;-58
2022/03/02 08:11:07;;;;;;;;;;;;;;;-0.46;87.20;100150.91;5052013;28;863;-58
2022/03/02 08:13:34;;;;;;;;;;;;;;;-0.32;87.22;100147.22;5050741;28;1466;-58
2022/03/02 08:16:01;;;;;;;;;;;;;;;0.07;86.96;100146.22;5051902;28;826;-58
2022/03/02 08:18:27;;;;;;;;;;;;;;;0.46;86.32;100141.63;5052249;28;1040;-57
2022/03/02 08:20:57;;;;;;;;;;;;;;;0.80;85.19;100134.44;5051831;28;961;-59
2022/03/02 08:23:24;;;;;;;;;;;;;;;1.01;84.09;100129.81;5051748;28;822;-58
2022/03/02 08:25:52;;;;;;;;;;;;;;;1.38;82.63;100132.75;5050950;28;1952;-60
2022/03/02 08:31:23;;;;;;;;;;;;;;;1.64;80.81;100120.84;5051583;28;613;-60
2022/03/02 08:33:51;;;;;;;;;;;;;;;1.22;80.78;100121.69;5051589;28;886;-60
2022/03/02 08:36:21;;;;;;;;;;;;;;;0.95;82.19;100112.09;5051590;28;851;-60
2022/03/02 08:38:49;;;;;;;;;;;;;;;0.98;82.79;100111.44;5051556;28;831;-59
2022/03/02 08:41:17;;;;;;;;;;;;;;;0.98;83.05;100116.06;5051230;28;1393;-59
2022/03/02 08:43:44;;;;;;;;;;;;;;;1.04;81.65;100117.47;5050328;28;1475;-59
2022/03/02 08:46:11;;;;;;;;;;;;;;;1.31;82.49;100118.88;5051347;28;1975;-59
2022/03/02 08:48:37;;;;;;;;;;;;;;;1.66;81.68;100109.63;5051726;28;819;-59
2022/03/02 08:51:04;;;;;;;;;;;;;;;1.58;80.52;100100.38;5051405;28;850;-59
2022/03/02 08:53:31;;;;;;;;;;;;;;;1.39;80.29;100093.50;5051434;28;910;-59
2022/03/02 08:55:59;;;;;;;;;;;;;;;1.42;81.20;100086.59;5051430;28;799;-60
2022/03/02 08:58:27;;;;;;;;;;;;;;;1.45;81.02;100087.84;5051466;28;791;-60
2022/03/02 09:00:54;;;;;;;;;;;;;;;1.43;81.06;100086.25;5051501;28;819;-60
2022/03/02 09:03:21;;;;;;;;;;;;;;;1.71;81.12;100077.50;5050081;28;1341;-60
2022/03/02 09:05:49;;;;;;;;;;;;;;;1.94;80.58;100074.38;5051159;28;1885;-60
2022/03/02 09:08:16;;;;;;;;;;;;;;;1.87;79.24;100063.25;5051280;28;863;-60
2022/03/02 09:10:46;;;;;;;;;;;;;;;1.78;79.63;100066.06;5051188;28;831;-60
2022/03/02 09:13:12;;;;;;;;;;;;;;;1.81;79.79;100070.81;5050166;28;1317;-60
2022/03/02 09:15:39;;;;;;;;;;;;;;;1.68;79.27;100063.75;5051849;28;993;-60
2022/03/02 09:18:06;;;;;;;;;;;;;;;1.58;79.97;100060.34;5051670;28;935;-60
2022/03/02 09:20:33;;;;;;;;;;;;;;;1.50;80.24;100060.41;5051305;28;800;-60
2022/03/02 09:23:01;;;;;;;;;;;;;;;1.29;80.00;100053.06;5051282;28;878;-60
2022/03/02 09:25:29;;;;;;;;;;;;;;;1.24;80.78;100045.09;5051328;28;1970;-60
2022/03/02 09:27:56;;;;;;;;;;;;;;;1.25;81.18;100033.06;5051591;28;886;-61
2022/03/02 09:30:23;;;;;;;;;;;;;;;1.62;80.25;100023.09;5051220;28;840;-60
2022/03/02 09:32:52;;;;;;;;;;;;;;;2.07;79.66;100026.13;5051314;28;862;-60
2022/03/02 09:35:19;;;;;;;;;;;;;;;2.64;78.50;100015.06;5050995;28;805;-61
2022/03/02 09:37:53;;;;;;;;;;;;;;;2.89;77.50;100004.09;5053535;28;835;-61
2022/03/02 09:40:29;;;;;;;;;;;;;;;2.99;76.58;100008.31;5055058;28;815;-62
2022/03/02 09:42:58;;;;;;;;;;;;;;;2.73;76.73;100004.03;5054527;28;1249;-61
2022/03/02 09:45:26;;;;;;;;;;;;;;;2.51;77.40;99999.84;5055146;28;1910;-60
2022/03/02 09:47:56;;;;;;;;;;;;;;;2.40;77.76;99996.00;5054921;28;886;-61
2022/03/02 09:50:25;;;;;;;;;;;;;;;2.27;77.75;99983.53;5054657;28;819;-61
2022/03/02 09:52:53;;;;;;;;;;;;;;;2.02;78.87;99992.47;5054528;28;1019;-61
2022/03/02 09:55:24;;;;;;;;;;;;;;;1.87;78.70;99976.81;5054587;28;820;-61
2022/03/02 09:57:57;;;;;;;;;;;;;;;1.93;79.10;99970.00;5053249;28;1219;-61
2022/03/02 10:00:25;;;;;;;;;;;;;;;2.00;79.02;99977.59;5054373;28;806;-61
2022/03/02 10:02:55;;;;;;;;;;;;;;;2.11;78.72;99975.22;5054472;28;783;-61
2022/03/02 10:05:22;;;;;;;;;;;;;;;2.40;77.92;99966.78;5054423;28;1964;-61
2022/03/02 10:07:56;;;;;;;;;;;;;;;2.64;77.26;99965.94;5054760;28;920;-61
2022/03/02 10:10:24;;;;;;;;;;;;;;;2.73;78.00;99965.84;5054303;28;807;-61
2022/03/02 10:12:51;;;;;;;;;;;;;;;3.03;78.61;99957.28;5054235;28;807;-60
2022/03/02 10:15:17;;;;;;;;;;;;;;;3.57;76.10;99950.53;5054165;28;886;-61
2022/03/02 10:17:45;;;;;;;;;;;;;;;4.06;74.76;99939.25;5054488;28;906;-61
2022/03/02 10:20:13;;;;;;;;;;;;;;;4.56;72.73;99925.88;5054135;28;870;-60
2022/03/02 10:22:40;;;;;;;;;;;;;;;4.51;70.11;99929.69;5052717;28;1174;-61
2022/03/02 10:25:07;;;;;;;;;;;;;;;4.47;68.68;99937.03;5053933;28;1996;-61
2022/03/02 10:27:56;;;;;;;;;;;;;;;3.97;68.35;99923.00;5053899;28;808;-60
2022/03/02 10:30:25;;;;;;;;;;;;;;;4.09;67.74;99917.41;5054202;28;1395;-60
2022/03/02 10:32:52;;;;;;;;;;;;;;;3.98;66.97;99926.53;5053821;28;815;-60
2022/03/02 10:35:21;;;;;;;;;;;;;;;4.12;67.64;99920.59;5053779;28;827;-61
2022/03/02 10:37:47;;;;;;;;;;;;;;;3.75;67.81;99915.44;5053758;28;807;-61
2022/03/02 10:40:18;;;;;;;;;;;;;;;3.69;67.53;99914.91;5053617;28;799;-61
2022/03/02 10:43:04;;;;;;;;;;;;;;;3.93;68.43;99904.94;5053572;28;1197;-61
2022/03/02 10:45:49;;;;;;;;;;;;;;;4.20;68.61;99895.78;5053494;28;1967;-61
2022/03/02 10:48:38;;;;;;;;;;;;;;;4.15;66.20;99898.81;5052586;28;925;-61
2022/03/02 10:51:06;;;;;;;;;;;;;;;4.44;66.24;99886.53;5053458;28;815;-61
2022/03/02 10:53:35;;;;;;;;;;;;;;;4.73;66.63;99878.09;5053479;28;902;-61
2022/03/02 10:56:03;;;;;;;;;;;;;;;4.74;63.61;99877.75;5053338;28;807;-61
2022/03/02 10:58:30;;;;;;;;;;;;;;;4.21;62.66;99867.28;5053259;28;882;-61
2022/03/02 11:00:59;;;;;;;;;;;;;;;3.96;64.09;99880.41;5053569;28;847;-61
2022/03/02 11:03:33;;;;;;;;;;;;;;;4.28;64.13;99864.69;5053260;28;831;-61
2022/03/02 11:06:00;;;;;;;;;;;;;;;4.72;63.83;99866.38;5053133;28;1949;-61
2022/03/02 11:08:28;;;;;;;;;;;;;;;4.49;63.00;99858.09;5053178;28;831;-61
2022/03/02 11:10:55;;;;;;;;;;;;;;;4.24;63.30;99855.59;5053123;28;895;-61
2022/03/02 11:13:22;;;;;;;;;;;;;;;3.90;64.46;99849.00;5053088;28;799;-61
2022/03/02 11:15:53;;;;;;;;;;;;;;;3.73;64.24;99847.44;5053078;28;799;-61
2022/03/02 11:18:32;;;;;;;;;;;;;;;3.38;64.42;99842.72;5053324;28;922;-61
2022/03/02 11:21:01;;;;;;;;;;;;;;;3.12;65.92;99834.25;5053007;28;970;-62
2022/03/02 11:23:30;;;;;;;;;;;;;;;2.85;66.87;99839.41;5052839;28;874;-61
2022/03/02 11:26:04;;;;;;;;;;;;;;;2.86;67.23;99841.00;5052787;28;1885;-62
2022/03/02 11:28:30;;;;;;;;;;;;;;;2.84;67.35;99838.63;5052756;28;874;-62
2022/03/02 11:31:02;;;;;;;;;;;;;;;2.86;67.85;99830.09;5052707;28;848;-61
2022/03/02 11:33:29;;;;;;;;;;;;;;;3.02;67.73;99824.63;5052728;28;819;-62
2022/03/02 11:36:00;;;;;;;;;;;;;;;2.85;66.48;99828.50;5052602;28;835;-62
2022/03/02 11:38:31;;;;;;;;;;;;;;;2.63;67.96;99822.47;5053271;28;748;-62
2022/03/02 11:40:57;;;;;;;;;;;;;;;2.55;67.65;99825.34;5052552;28;1048;-62
2022/03/02 11:43:28;;;;;;;;;;;;;;;2.80;68.16;99826.81;5052341;28;1437;-62
2022/03/02 11:45:58;;;;;;;;;;;;;;;3.31;67.02;99820.69;5051188;28;1914;-62
2022/03/02 11:48:26;;;;;;;;;;;;;;;3.68;65.88;99820.38;5052465;28;921;-62
2022/03/02 11:51:01;;;;;;;;;;;;;;;3.84;65.78;99812.94;5052427;28;870;-62
2022/03/02 11:53:29;;;;;;;;;;;;;;;4.49;65.69;99801.41;5052287;28;905;-61
2022/03/02 11:55:55;;;;;;;;;;;;;;;6.01;61.78;99801.94;5052300;28;873;-62
2022/03/02 11:58:22;;;;;;;;;;;;;;;6.85;60.43;99792.34;5052147;28;835;-62
2022/03/02 12:00:48;;;;;;;;;;;;;;;6.62;60.39;99794.47;5051955;28;1038;-62
2022/03/02 12:03:15;;;;;;;;;;;;;;;5.39;59.48;99793.97;5052128;28;815;-61
2022/03/02 12:05:41;;;;;;;;;;;;;;;4.82;59.29;99793.78;5052014;28;1890;-61
2022/03/02 12:08:12;;;;;;;;;;;;;;;4.26;59.55;99787.63;5052023;28;1061;-61
2022/03/02 12:10:41;;;;;;;;;;;;;;;4.30;60.38;99776.78;5052456;28;831;-62
2022/03/02 12:13:08;;;;;;;;;;;;;;;4.37;60.08;99781.59;5052218;28;843;-62
2022/03/02 12:16:06;;;;;;;;;;;;;;;4.59;60.51;99778.13;5052121;28;831;-62
2022/03/02 12:18:37;;;;;;;;;;;;;;;4.91;60.21;99781.44;5050482;28;1409;-62
2022/03/02 12:21:03;;;;;;;;;;;;;;;5.07;59.50;99780.53;5051870;28;881;-61
2022/03/02 12:23:32;;;;;;;;;;;;;;;5.32;57.79;99776.25;5051850;28;823;-61
2022/03/02 12:25:59;;;;;;;;;;;;;;;5.10;58.08;99769.63;5051512;28;1890;-61
2022/03/02 12:28:25;;;;;;;;;;;;;;;4.28;57.96;99770.88;5051740;28;827;-61
2022/03/02 12:30:52;;;;;;;;;;;;;;;3.97;59.88;99777.25;5051705;28;839;-61
2022/03/02 12:33:19;;;;;;;;;;;;;;;3.70;61.19;99768.88;5051607;28;997;-61
2022/03/02 12:35:45;;;;;;;;;;;;;;;3.60;61.98;99769.44;5051653;28;874;-61
2022/03/02 12:38:13;;;;;;;;;;;;;;;3.51;62.32;99766.13;5051603;28;803;-61
2022/03/02 12:40:42;;;;;;;;;;;;;;;3.34;62.24;99770.78;5051552;28;930;-61
2022/03/02 12:43:13;;;;;;;;;;;;;;;3.13;62.17;99770.28;5051227;28;1417;-61
2022/03/02 12:45:40;;;;;;;;;;;;;;;2.98;63.27;99766.41;5051710;28;1909;-61
2022/03/02 12:48:07;;;;;;;;;;;;;;;2.89;63.96;99763.06;5051706;28;835;-61
2022/03/02 12:50:34;;;;;;;;;;;;;;;2.77;64.84;99761.19;5051802;28;906;-62
2022/03/02 12:53:02;;;;;;;;;;;;;;;2.81;64.91;99768.31;5051654;28;830;-61
2022/03/02 12:55:29;;;;;;;;;;;;;;;2.90;64.83;99762.69;5050368;28;1189;-61
2022/03/02 12:57:57;;;;;;;;;;;;;;;3.00;65.67;99770.38;5051592;28;831;-61
2022/03/02 13:00:23;;;;;;;;;;;;;;;3.38;64.69;99770.88;5051436;28;886;-61
2022/03/02 13:02:55;;;;;;;;;;;;;;;3.77;64.33;99766.28;5051497;28;808;-61
2022/03/02 13:05:39;;;;;;;;;;;;;;;4.51;63.77;99757.25;5051285;28;1886;-60
2022/03/02 13:08:08;;;;;;;;;;;;;;;4.30;63.19;99750.19;5051280;28;843;-60